Time;durP1;ratioP1;P1;durP2;ratioP2;P2;SDS_P1;SDS_P2;PMS_P1;PMS_P2;Temp;Humidity;BMP_temperature;BMP_pressure;BME280_temperature;BME280_humidity;BME280_pressure;Samples;Min_cycle;Max_cycle;Signal;HPM_P1;HPM_P2
2019/05/27 00:00:09;;;;;;;3.9;2.8;;;;;;;13.12;79.5498;935.5849;;;;
2019/05/27 00:02:44;;;;;;;5.3;3.4;;;;;;;13.3;79.33008;935.5319;;;;
2019/05/27 00:05:03;;;;;;;4.3;3.4;;;;;;;13.44;78.54102;935.4225;;;;
2019/05/27 00:07:41;;;;;;;3.6;3.1;;;;;;;13.46;78.0957;935.42;;;;
2019/05/27 00:10:32;;;;;;;4.3;3.4;;;;;;;13.43;78.05664;935.4066;;;;
2019/05/27 00:12:57;;;;;;;5.2;3.3;;;;;;;13.55;77.82422;935.4058;;;;
2019/05/27 00:15:36;;;;;;;4.6;3.5;;;;;;;13.58;77.55469;935.4024;;;;
2019/05/27 00:18:02;;;;;;;5.8;3.2;;;;;;;13.54;77.52344;935.4363;;;;
2019/05/27 00:20:44;;;;;;;4;3.1;;;;;;;13.53;77.69434;935.3995;;;;
2019/05/27 00:23:01;;;;;;;4.2;3.3;;;;;;;13.51;77.4502;935.3628;;;;
2019/05/27 00:25:35;;;;;;;4.5;3.2;;;;;;;13.52;77.57813;935.3748;;;;
2019/05/27 00:28:15;;;;;;;3.3;3;;;;;;;13.43;77.63086;935.3762;;;;
2019/05/27 00:30:41;;;;;;;4.9;3.2;;;;;;;13.37;78.04492;935.3747;;;;
2019/05/27 00:33:13;;;;;;;5.2;3.4;;;;;;;13.36;77.95117;935.4091;;;;
2019/05/27 00:35:47;;;;;;;4.6;2.9;;;;;;;13.29;78.15723;935.3575;;;;
2019/05/27 00:38:16;;;;;;;4.1;3.1;;;;;;;12.9;80.03906;935.3914;;;;
2019/05/27 00:40:52;;;;;;;4;3;;;;;;;12.89;80.19922;935.3491;;;;
2019/05/27 00:43:13;;;;;;;6.8;3.7;;;;;;;13.08;79.98047;935.3628;;;;
2019/05/27 00:45:38;;;;;;;3.5;3.2;;;;;;;13.29;78.81152;935.2728;;;;
2019/05/27 00:48:10;;;;;;;4.7;3.6;;;;;;;13.44;78.3916;935.2601;;;;
2019/05/27 00:50:42;;;;;;;4;3.6;;;;;;;13.36;78.93945;935.2436;;;;
2019/05/27 00:53:16;;;;;;;5.1;3.7;;;;;;;13.47;78.87891;935.2015;;;;
2019/05/27 00:55:47;;;;;;;3.9;3.1;;;;;;;13.57;77.54004;935.2289;;;;
2019/05/27 00:58:13;;;;;;;3.3;3;;;;;;;13.63;77.68945;935.1711;;;;
2019/05/27 01:00:45;;;;;;;5.8;3.1;;;;;;;13.64;77.12793;935.2216;;;;
2019/05/27 01:03:14;;;;;;;5.1;3.7;;;;;;;13.7;77.55273;935.2266;;;;
2019/05/27 01:05:45;;;;;;;4.1;3;;;;;;;13.82;76.99902;935.2564;;;;
2019/05/27 01:08:28;;;;;;;6.9;3.9;;;;;;;13.77;77.5293;935.2197;;;;
2019/05/27 01:11:06;;;;;;;4.4;3.6;;;;;;;13.79;77.68359;935.1955;;;;
2019/05/27 01:13:30;;;;;;;7.3;3.9;;;;;;;13.71;77.72656;935.2001;;;;
2019/05/27 01:16:04;;;;;;;6.9;4.5;;;;;;;13.63;77.9668;935.1407;;;;
2019/05/27 01:18:35;;;;;;;7.1;4.3;;;;;;;13.5;78.55176;935.087;;;;
2019/05/27 01:21:08;;;;;;;6;3.7;;;;;;;13.47;78.47461;935.108;;;;
2019/05/27 01:23:32;;;;;;;4.9;3.5;;;;;;;13.54;77.76563;935.0826;;;;
2019/05/27 01:26:04;;;;;;;5.4;3.3;;;;;;;13.64;77.43848;935.1311;;;;
2019/05/27 01:28:45;;;;;;;5.1;3.2;;;;;;;13.71;77.50879;935.0977;;;;
2019/05/27 01:31:11;;;;;;;3.6;2.8;;;;;;;13.79;76.90137;935.0842;;;;
2019/05/27 01:33:43;;;;;;;4.1;3.2;;;;;;;13.85;76.91113;935.0441;;;;
2019/05/27 01:36:16;;;;;;;4.6;2.9;;;;;;;13.75;76.91699;934.9871;;;;
2019/05/27 01:38:43;;;;;;;7.3;3.1;;;;;;;13.44;77.9082;934.9826;;;;
2019/05/27 01:41:08;;;;;;;5;3;;;;;;;13.22;78.94922;934.9597;;;;
2019/05/27 01:43:41;;;;;;;3.8;3.3;;;;;;;13.4;78.87891;934.9354;;;;
2019/05/27 01:46:22;;;;;;;3.8;2.9;;;;;;;13.49;77.78027;934.9342;;;;
2019/05/27 01:48:58;;;;;;;5;3.1;;;;;;;13.67;77.85742;934.902;;;;
2019/05/27 01:51:25;;;;;;;5.5;3;;;;;;;13.64;77.00098;934.9142;;;;
2019/05/27 01:53:54;;;;;;;4.2;3.4;;;;;;;13.68;77.72168;934.8747;;;;
2019/05/27 01:56:20;;;;;;;4.6;3.4;;;;;;;13.61;77.99707;934.8614;;;;
2019/05/27 01:58:57;;;;;;;3.6;3.3;;;;;;;13.71;77.11719;934.8289;;;;
2019/05/27 02:01:24;;;;;;;6;3.2;;;;;;;13.83;76.85254;934.7601;;;;
2019/05/27 02:03:55;;;;;;;4.2;3;;;;;;;13.87;77.09863;934.7558;;;;
2019/05/27 02:06:24;;;;;;;6.1;3.6;;;;;;;13.68;77.9502;934.6962;;;;
2019/05/27 02:08:47;;;;;;;4.4;3.2;;;;;;;13.73;77.94922;934.6558;;;;
2019/05/27 02:11:17;;;;;;;5;3.2;;;;;;;13.86;77.14258;934.7231;;;;
2019/05/27 02:13:57;;;;;;;3.8;3.1;;;;;;;13.91;77.45215;934.6746;;;;
2019/05/27 02:16:33;;;;;;;4;3.4;;;;;;;13.98;77.3252;934.6411;;;;
2019/05/27 02:19:11;;;;;;;3.8;2.9;;;;;;;14.03;76.78027;934.6017;;;;
2019/05/27 02:21:38;;;;;;;4.6;3.2;;;;;;;14;76.13281;934.6464;;;;
2019/05/27 02:24:07;;;;;;;4.2;3.1;;;;;;;14.01;77.25098;934.6121;;;;
2019/05/27 02:26:44;;;;;;;3.6;3.1;;;;;;;14.09;76.82617;934.5818;;;;
2019/05/27 02:29:16;;;;;;;4.4;3.1;;;;;;;14.09;76.61035;934.6066;;;;
2019/05/27 02:31:54;;;;;;;4.2;2.8;;;;;;;14;76.24805;934.5656;;;;
2019/05/27 02:34:18;;;;;;;4.1;2.7;;;;;;;13.8;77.09863;934.5457;;;;
2019/05/27 02:36:53;;;;;;;3.2;2.9;;;;;;;13.91;77.33691;934.5673;;;;
2019/05/27 02:39:19;;;;;;;4.1;3;;;;;;;14.02;77.22949;934.5642;;;;
2019/05/27 02:41:50;;;;;;;4.9;3.4;;;;;;;14.1;77.42773;934.5161;;;;
2019/05/27 02:44:21;;;;;;;5.8;3.1;;;;;;;14.2;76.375;934.4622;;;;
2019/05/27 02:46:54;;;;;;;4;3;;;;;;;14.26;76.19043;934.4851;;;;
2019/05/27 02:49:25;;;;;;;5.1;3.1;;;;;;;14.26;76.71777;934.5027;;;;
2019/05/27 02:51:53;;;;;;;5.3;2.9;;;;;;;14.31;76.32422;934.535;;;;
2019/05/27 02:54:32;;;;;;;4.2;2.9;;;;;;;14.34;76.31738;934.5531;;;;
2019/05/27 02:56:57;;;;;;;4.9;3.3;;;;;;;14.37;76.42578;934.5712;;;;
2019/05/27 02:59:26;;;;;;;5.8;3.2;;;;;;;14.33;77.05371;934.5156;;;;
2019/05/27 03:02:00;;;;;;;4.3;2.9;;;;;;;14.34;75.81055;934.5363;;;;
2019/05/27 03:04:35;;;;;;;4.4;2.8;;;;;;;14.32;76.21094;934.4997;;;;
2019/05/27 03:07:13;;;;;;;3.5;2.6;;;;;;;14.16;76;934.5642;;;;
2019/05/27 03:09:42;;;;;;;3.1;2.8;;;;;;;14.14;76.6875;934.5541;;;;
2019/05/27 03:12:20;;;;;;;4;2.9;;;;;;;14.28;76.32031;934.5168;;;;
2019/05/27 03:14:52;;;;;;;3.6;2.9;;;;;;;14.29;76.21777;934.5377;;;;
2019/05/27 03:17:14;;;;;;;4.1;3;;;;;;;14.14;76.92773;934.5758;;;;
2019/05/27 03:19:49;;;;;;;4.7;2.8;;;;;;;13.75;78.88379;934.5556;;;;
2019/05/27 03:22:21;;;;;;;6.5;2.9;;;;;;;13.61;79.7334;934.6349;;;;
2019/05/27 03:24:54;;;;;;;6.3;3;;;;;;;13.79;78.75391;934.5897;;;;
2019/05/27 03:27:22;;;;;;;4.9;3;;;;;;;13.66;79.23535;934.6428;;;;
2019/05/27 03:29:50;;;;;;;4.9;3;;;;;;;13.78;78.84375;934.6291;;;;
2019/05/27 03:32:17;;;;;;;4.7;2.6;;;;;;;14.03;77.82813;934.5377;;;;
2019/05/27 03:34:56;;;;;;;3.4;2.9;;;;;;;14.04;77.64844;934.6039;;;;
2019/05/27 03:37:19;;;;;;;4.9;2.7;;;;;;;13.93;77.5918;934.5744;;;;
2019/05/27 03:39:50;;;;;;;3;2.7;;;;;;;13.59;79.19922;934.5775;;;;
2019/05/27 03:42:15;;;;;;;3.1;2.8;;;;;;;13.84;78.23438;934.5751;;;;
2019/05/27 03:44:41;;;;;;;4.7;3.3;;;;;;;14.03;78.27637;934.5505;;;;
2019/05/27 03:47:12;;;;;;;8.2;4.6;;;;;;;14.15;77.51855;934.5956;;;;
2019/05/27 03:49:43;;;;;;;7.5;4.5;;;;;;;14.19;76.4541;934.5104;;;;
2019/05/27 03:52:07;;;;;;;7.4;5.3;;;;;;;14.27;77.10156;934.5266;;;;
2019/05/27 03:54:32;;;;;;;7.6;4.4;;;;;;;14.33;76.24707;934.5796;;;;
2019/05/27 03:57:10;;;;;;;4.8;3.9;;;;;;;14.43;76.75;934.5895;;;;
2019/05/27 03:59:38;;;;;;;6.7;4.2;;;;;;;14.47;77.30957;934.5978;;;;
2019/05/27 04:02:36;;;;;;;5.3;3.5;;;;;;;14.53;76.49121;934.6124;;;;
2019/05/27 04:05:13;;;;;;;3.7;3.4;;;;;;;14.47;76.82422;934.6244;;;;
2019/05/27 04:07:46;;;;;;;4.3;3.4;;;;;;;14.53;77.19336;934.6124;;;;
2019/05/27 04:10:20;;;;;;;5.2;3.7;;;;;;;14.38;77.51172;934.5999;;;;
2019/05/27 04:12:51;;;;;;;4.8;3.3;;;;;;;14.26;78.28613;934.6644;;;;
2019/05/27 04:15:23;;;;;;;5.8;4;;;;;;;14.26;79.49316;934.622;;;;
2019/05/27 04:17:44;;;;;;;4.6;3.9;;;;;;;14.4;78.34473;934.6742;;;;
2019/05/27 04:20:12;;;;;;;5.1;4.1;;;;;;;14.28;78.83008;934.7396;;;;
2019/05/27 04:22:43;;;;;;;5.5;3.4;;;;;;;14.23;78.50977;934.7449;;;;
2019/05/27 04:25:12;;;;;;;5.3;3.7;;;;;;;14.26;79.61035;934.7453;;;;
2019/05/27 04:27:46;;;;;;;4.8;3.7;;;;;;;14.33;79.67969;934.7126;;;;
2019/05/27 04:30:20;;;;;;;5.4;3.7;;;;;;;14.22;79.64844;934.7891;;;;
2019/05/27 04:32:45;;;;;;;4.8;4.1;;;;;;;14.22;80.16797;934.7546;;;;
2019/05/27 04:35:20;;;;;;;4.8;4;;;;;;;14.26;79.8623;934.7502;;;;
2019/05/27 04:37:47;;;;;;;5.5;4.1;;;;;;;14.31;79.56055;934.7825;;;;
2019/05/27 04:40:12;;;;;;;6.6;3.8;;;;;;;14.08;80.17383;934.7325;;;;
2019/05/27 04:42:40;;;;;;;6;3.7;;;;;;;14;80.03418;934.7489;;;;
2019/05/27 04:45:18;;;;;;;5;4.1;;;;;;;13.77;81.46484;934.7067;;;;
2019/05/27 04:47:51;;;;;;;5.7;4.5;;;;;;;13.83;82.0625;934.7048;;;;
2019/05/27 04:50:18;;;;;;;6.5;4.5;;;;;;;13.9;81.67285;934.7178;;;;
2019/05/27 04:52:49;;;;;;;5.7;4.5;;;;;;;14.04;81.10156;934.7449;;;;
2019/05/27 04:55:22;;;;;;;6.5;4.1;;;;;;;14.12;80.25195;934.7233;;;;
2019/05/27 04:57:49;;;;;;;6.8;4;;;;;;;14;80.65625;934.6769;;;;
2019/05/27 05:00:16;;;;;;;4.4;3.7;;;;;;;14.03;80.30371;934.7122;;;;
2019/05/27 05:02:49;;;;;;;5.7;3.9;;;;;;;14.04;80.60645;934.7281;;;;
2019/05/27 05:05:19;;;;;;;5;4.1;;;;;;;13.96;81.80957;934.6989;;;;
2019/05/27 05:08:06;;;;;;;6.5;4.5;;;;;;;13.95;81.98047;934.7086;;;;
2019/05/27 05:10:48;;;;;;;4.8;4.3;;;;;;;14.02;81.11914;934.6873;;;;
2019/05/27 05:13:32;;;;;;;5.9;4.4;;;;;;;13.78;82.14551;934.6458;;;;
2019/05/27 05:16:11;;;;;;;6;4.4;;;;;;;13.83;82.21191;934.6833;;;;
2019/05/27 05:19:04;;;;;;;5.4;4.3;;;;;;;13.52;83.51074;934.5853;;;;
2019/05/27 05:21:32;;;;;;;6.2;4.6;;;;;;;13.68;83.43652;934.6234;;;;
2019/05/27 05:24:02;;;;;;;6.2;4.5;;;;;;;13.86;82.48145;934.599;;;;
2019/05/27 05:26:30;;;;;;;7.6;6.3;;;;;;;13.91;82.16992;934.5761;;;;
2019/05/27 05:29:05;;;;;;;8;6.2;;;;;;;13.78;82.8916;934.5698;;;;
2019/05/27 05:31:35;;;;;;;14;9.5;;;;;;;14.04;82.46973;934.5536;;;;
2019/05/27 05:34:02;;;;;;;8.9;6.6;;;;;;;14.25;81.63574;934.5036;;;;
2019/05/27 05:36:35;;;;;;;9.5;7.3;;;;;;;14.34;82.03223;934.4714;;;;
2019/05/27 05:39:16;;;;;;;8.8;7;;;;;;;14.46;81.48828;934.5396;;;;
2019/05/27 05:41:41;;;;;;;9.1;5.5;;;;;;;14.59;80.13086;934.5589;;;;
2019/05/27 05:44:18;;;;;;;5.2;4.7;;;;;;;14.66;79.59082;934.5887;;;;
2019/05/27 05:46:53;;;;;;;8.5;4.8;;;;;;;14.68;79.96289;934.6253;;;;
2019/05/27 05:49:18;;;;;;;5.4;4.1;;;;;;;14.55;80.12402;934.5673;;;;
2019/05/27 05:51:49;;;;;;;5.2;4;;;;;;;14.44;80.74805;934.4397;;;;
2019/05/27 05:54:19;;;;;;;7.1;4.1;;;;;;;14.38;81.10645;934.3861;;;;
2019/05/27 05:56:50;;;;;;;5.1;4.2;;;;;;;14.19;81.94629;934.3518;;;;
2019/05/27 05:59:18;;;;;;;6.6;4.1;;;;;;;14.15;82.25;934.3058;;;;
2019/05/27 06:01:58;;;;;;;5.3;4;;;;;;;14.04;81.91895;934.3734;;;;
2019/05/27 06:04:31;;;;;;;8.3;4.9;;;;;;;14.27;82.17969;934.3047;;;;
2019/05/27 06:06:57;;;;;;;5.4;3.9;;;;;;;14.13;81.8877;934.346;;;;
2019/05/27 06:09:31;;;;;;;7.3;5.6;;;;;;;14.32;81.82031;934.4227;;;;
2019/05/27 06:12:05;;;;;;;9.3;5.4;;;;;;;14.41;82.5166;934.4081;;;;
2019/05/27 06:14:32;;;;;;;5.2;4.5;;;;;;;14.42;82.38184;934.3938;;;;
2019/05/27 06:16:59;;;;;;;5.3;4;;;;;;;14.49;81.64453;934.3694;;;;
2019/05/27 06:19:31;;;;;;;10.2;4.7;;;;;;;14.51;80.96875;934.341;;;;
2019/05/27 06:22:05;;;;;;;8.2;4.1;;;;;;;14.28;81.27148;934.3591;;;;
2019/05/27 06:24:29;;;;;;;5.6;4;;;;;;;14.14;82.66309;934.3234;;;;
2019/05/27 06:27:04;;;;;;;4;3.6;;;;;;;14.08;82.60449;934.4242;;;;
2019/05/27 06:29:34;;;;;;;4.1;3.7;;;;;;;14.37;81.76074;934.3741;;;;
2019/05/27 06:32:08;;;;;;;4.7;3.6;;;;;;;14.5;80.98926;934.3644;;;;
2019/05/27 06:34:42;;;;;;;4.6;3.7;;;;;;;14.41;81.27246;934.3785;;;;
2019/05/27 06:37:16;;;;;;;4.3;3.5;;;;;;;14.5;81.20996;934.3596;;;;
2019/05/27 06:40:01;;;;;;;4.4;3.6;;;;;;;14.31;81.91211;934.3508;;;;
2019/05/27 06:42:29;;;;;;;4.7;3.6;;;;;;;14.32;81.92383;934.3971;;;;
2019/05/27 06:44:54;;;;;;;4.3;3.6;;;;;;;14.21;82.17969;934.3628;;;;
2019/05/27 06:47:26;;;;;;;5.6;4.1;;;;;;;14.11;83.51953;934.3743;;;;
2019/05/27 06:50:04;;;;;;;8.3;4.7;;;;;;;14.53;82.10059;934.348;;;;
2019/05/27 06:52:43;;;;;;;5.7;4.4;;;;;;;14.96;80.87891;934.4345;;;;
2019/05/27 06:55:15;;;;;;;5.9;4.2;;;;;;;15.13;79.77832;934.4405;;;;
2019/05/27 06:57:54;;;;;;;4.9;3.9;;;;;;;15;79.91699;934.4299;;;;
2019/05/27 07:00:19;;;;;;;4.4;3.6;;;;;;;14.85;79.8916;934.4127;;;;
2019/05/27 07:06:17;;;;;;;4.6;3.7;;;;;;;15.02;80.4043;934.3762;;;;
2019/05/27 07:08:39;;;;;;;5.1;3.6;;;;;;;15.09;78.72363;934.4016;;;;
2019/05/27 07:11:10;;;;;;;4.7;3.6;;;;;;;15.23;79;934.3519;;;;
2019/05/27 07:13:39;;;;;;;4.8;3.5;;;;;;;14.99;79.88184;934.2464;;;;
2019/05/27 07:16:11;;;;;;;4;3.5;;;;;;;15.22;79.33496;934.3439;;;;
2019/05/27 07:18:43;;;;;;;3.6;3.3;;;;;;;15.67;78.66602;934.2519;;;;
2019/05/27 07:21:15;;;;;;;4.4;3.5;;;;;;;15.61;77.71875;934.1731;;;;
2019/05/27 07:23:35;;;;;;;4.4;3.6;;;;;;;15.35;78.4707;934.1694;;;;
2019/05/27 07:26:08;;;;;;;5.5;3.4;;;;;;;15.68;77.77832;934.2076;;;;
2019/05/27 07:34:12;;;;;;;4.6;3.7;;;;;;;16.02;77.53613;934.0898;;;;
2019/05/27 07:36:44;;;;;;;4;3.6;;;;;;;16.25;77.13867;934.1519;;;;
2019/05/27 07:39:16;;;;;;;5.1;3.1;;;;;;;16.43;74.77441;934.1589;;;;
2019/05/27 07:41:53;;;;;;;3.4;3.1;;;;;;;16.33;75.99609;934.0939;;;;
2019/05/27 07:44:28;;;;;;;5.7;3.5;;;;;;;16.5;76.25684;934;;;;
2019/05/27 07:46:56;;;;;;;5.7;3.8;;;;;;;16.49;75.73438;933.9377;;;;
2019/05/27 07:49:26;;;;;;;7.8;5.6;;;;;;;16.64;75.72461;933.9533;;;;
2019/05/27 07:51:52;;;;;;;7.9;4.5;;;;;;;16.57;73.9873;933.8845;;;;
2019/05/27 07:54:31;;;;;;;5.6;4.2;;;;;;;16.25;75.69238;933.8561;;;;
2019/05/27 07:57:14;;;;;;;42.8;30.1;;;;;;;16.5;75.0752;933.7606;;;;
2019/05/27 07:59:43;;;;;;;6.5;4.3;;;;;;;16.59;74.35059;933.7015;;;;
2019/05/27 08:02:15;;;;;;;5.2;3.1;;;;;;;16.8;73.49414;933.6672;;;;
2019/05/27 08:04:46;;;;;;;3.9;3.1;;;;;;;16.77;73.15234;933.5988;;;;
2019/05/27 08:07:30;;;;;;;5.4;3.4;;;;;;;16.66;73.13379;933.5349;;;;
2019/05/27 08:10:03;;;;;;;4.5;3.5;;;;;;;16.57;73.35254;933.5581;;;;
2019/05/27 08:12:36;;;;;;;3.5;3.2;;;;;;;16.98;73.1416;933.5332;;;;
2019/05/27 08:15:09;;;;;;;4.7;3.4;;;;;;;16.84;71.9248;933.5082;;;;
2019/05/27 08:17:42;;;;;;;8.1;3.4;;;;;;;16.51;72.55273;933.5025;;;;
2019/05/27 08:20:14;;;;;;;6.8;3.9;;;;;;;16.43;74.37012;933.4646;;;;
2019/05/27 08:22:53;;;;;;;5.6;3.7;;;;;;;16.84;72.38965;933.4261;;;;
2019/05/27 08:25:19;;;;;;;4.5;3.8;;;;;;;16.85;72.4834;933.3865;;;;
2019/05/27 08:27:44;;;;;;;7.3;4.1;;;;;;;17.3;73.82227;933.3806;;;;
2019/05/27 08:30:12;;;;;;;15.1;4.7;;;;;;;17.51;71.60547;933.4016;;;;
2019/05/27 08:32:40;;;;;;;8;3.7;;;;;;;17.77;71.81055;933.3929;;;;
2019/05/27 08:35:06;;;;;;;5.4;3.6;;;;;;;18.04;70.60156;933.3791;;;;
2019/05/27 08:37:44;;;;;;;4.6;3.2;;;;;;;17.89;69.49707;933.3732;;;;
2019/05/27 08:40:06;;;;;;;6.9;3.2;;;;;;;18.19;70.63672;933.3727;;;;
2019/05/27 08:42:45;;;;;;;5.5;3.1;;;;;;;18.02;67.64648;933.3352;;;;
2019/05/27 08:45:12;;;;;;;6;3.1;;;;;;;17.3;69.69238;933.4152;;;;
2019/05/27 08:47:53;;;;;;;6.3;3.3;;;;;;;17.31;71.00586;933.3489;;;;
2019/05/27 08:50:19;;;;;;;4.2;2.9;;;;;;;17.72;70.83789;933.3871;;;;
2019/05/27 08:52:49;;;;;;;4.6;2.9;;;;;;;17.82;68.60352;933.3912;;;;
2019/05/27 08:55:18;;;;;;;3.2;2.9;;;;;;;17.61;67.63086;933.4739;;;;
2019/05/27 08:57:47;;;;;;;4.3;3;;;;;;;17.93;70.1084;933.4792;;;;
2019/05/27 09:00:30;;;;;;;6.7;2.8;;;;;;;18.26;68.42773;933.4451;;;;
2019/05/27 09:06:33;;;;;;;4.1;2.8;;;;;;;18.55;67.47461;933.3629;;;;
2019/05/27 09:09:01;;;;;;;7.1;2.9;;;;;;;18.64;64.97461;933.2916;;;;
2019/05/27 09:11:33;;;;;;;8.1;3;;;;;;;18.78;64.59961;933.3286;;;;
2019/05/27 09:14:01;;;;;;;5.9;3;;;;;;;18.78;64.99414;933.3206;;;;
2019/05/27 09:16:38;;;;;;;5.4;3;;;;;;;18.64;65.47363;933.3392;;;;
2019/05/27 09:19:05;;;;;;;7.3;3.1;;;;;;;18.63;65.25195;933.3403;;;;
2019/05/27 09:21:41;;;;;;;8.9;3.2;;;;;;;18.6;63.04883;933.3915;;;;
2019/05/27 09:24:16;;;;;;;8.7;3;;;;;;;18.5;64.39648;933.387;;;;
2019/05/27 09:26:49;;;;;;;5.6;2.9;;;;;;;18.41;63.38184;933.3345;;;;
2019/05/27 09:29:21;;;;;;;9.4;2.9;;;;;;;18.4;63.8584;933.3444;;;;
2019/05/27 09:37:33;;;;;;;10.6;3.5;;;;;;;18.31;66.48242;933.2535;;;;
2019/05/27 09:40:01;;;;;;;5.9;3.3;;;;;;;18.32;66.69336;933.2009;;;;
2019/05/27 09:42:35;;;;;;;13.4;3.7;;;;;;;18.3;64.4707;933.1643;;;;
2019/05/27 09:45:17;;;;;;;8.4;3.1;;;;;;;18.3;63.94727;933.2634;;;;
2019/05/27 09:48:03;;;;;;;9.9;3.4;;;;;;;18.35;63.10645;933.2137;;;;
2019/05/27 09:50:27;;;;;;;9.3;3.5;;;;;;;18.17;63.67383;933.3619;;;;
2019/05/27 09:55:08;;;;;;;6.9;3.4;;;;;;;18.06;64.00488;933.39;;;;
2019/05/27 09:57:34;;;;;;;8.5;2.8;;;;;;;18.04;62.95703;933.4099;;;;
2019/05/27 10:00:14;;;;;;;5.5;3.5;;;;;;;18.11;68.75293;933.37;;;;
2019/05/27 10:02:50;;;;;;;10.1;3;;;;;;;18.15;68.10742;933.2836;;;;
